sensor_id;sensor_type;location;lat;lon;timestamp;temperature;humidity
1994;DHT22;998;49.906;10.908;2023-08-06T00:00:41;17.90;99.90
1994;DHT22;998;49.906;10.908;2023-08-06T00:03:08;17.90;99.90
1994;DHT22;998;49.906;10.908;2023-08-06T00:05:36;18.00;99.90
1994;DHT22;998;49.906;10.908;2023-08-06T00:08:03;18.00;99.90
1994;DHT22;998;49.906;10.908;2023-08-06T00:10:31;18.00;99.90
1994;DHT22;998;49.906;10.908;2023-08-06T00:12:58;18.00;99.90
1994;DHT22;998;49.906;10.908;2023-08-06T00:15:26;17.90;99.90
1994;DHT22;998;49.906;10.908;2023-08-06T00:17:54;17.90;99.90
1994;DHT22;998;49.906;10.908;2023-08-06T00:20:21;17.90;99.90
1994;DHT22;998;49.906;10.908;2023-08-06T00:22:48;17.80;99.90
1994;DHT22;998;49.906;10.908;2023-08-06T00:25:16;17.90;99.90
1994;DHT22;998;49.906;10.908;2023-08-06T00:27:43;17.80;99.90
1994;DHT22;998;49.906;10.908;2023-08-06T00:30:11;17.80;99.90
1994;DHT22;998;49.906;10.908;2023-08-06T00:32:40;17.80;99.90
1994;DHT22;998;49.906;10.908;2023-08-06T00:35:07;17.70;99.90
1994;DHT22;998;49.906;10.908;2023-08-06T00:37:35;17.70;99.90
1994;DHT22;998;49.906;10.908;2023-08-06T00:40:03;17.60;99.90
1994;DHT22;998;49.906;10.908;2023-08-06T00:42:30;17.40;99.90
1994;DHT22;998;49.906;10.908;2023-08-06T00:44:58;17.30;99.90
1994;DHT22;998;49.906;10.908;2023-08-06T00:47:25;17.30;99.90
1994;DHT22;998;49.906;10.908;2023-08-06T00:49:54;17.20;99.90
1994;DHT22;998;49.906;10.908;2023-08-06T00:52:22;17.10;99.90
1994;DHT22;998;49.906;10.908;2023-08-06T00:54:49;17.20;99.90
1994;DHT22;998;49.906;10.908;2023-08-06T00:57:17;17.20;99.90
1994;DHT22;998;49.906;10.908;2023-08-06T00:59:44;17.10;99.90
1994;DHT22;998;49.906;10.908;2023-08-06T01:02:12;17.10;99.90
1994;DHT22;998;49.906;10.908;2023-08-06T01:04:40;17.10;99.90
1994;DHT22;998;49.906;10.908;2023-08-06T01:07:16;17.20;99.90
1994;DHT22;998;49.906;10.908;2023-08-06T01:09:53;17.10;99.90
1994;DHT22;998;49.906;10.908;2023-08-06T01:12:33;17.10;99.90
1994;DHT22;998;49.906;10.908;2023-08-06T01:15:09;17.10;99.90
1994;DHT22;998;49.906;10.908;2023-08-06T01:17:40;17.20;99.90
1994;DHT22;998;49.906;10.908;2023-08-06T01:20:08;17.20;99.90
1994;DHT22;998;49.906;10.908;2023-08-06T01:22:37;17.20;99.90
1994;DHT22;998;49.906;10.908;2023-08-06T01:25:05;17.10;99.90
1994;DHT22;998;49.906;10.908;2023-08-06T01:27:38;17.10;99.90
1994;DHT22;998;49.906;10.908;2023-08-06T01:30:12;17.10;99.90
1994;DHT22;998;49.906;10.908;2023-08-06T01:32:44;17.10;99.90
1994;DHT22;998;49.906;10.908;2023-08-06T01:35:15;17.00;99.90
1994;DHT22;998;49.906;10.908;2023-08-06T01:37:46;17.10;99.90
1994;DHT22;998;49.906;10.908;2023-08-06T01:40:14;17.10;99.90
1994;DHT22;998;49.906;10.908;2023-08-06T01:42:42;17.10;99.90
1994;DHT22;998;49.906;10.908;2023-08-06T01:45:11;17.10;99.90
1994;DHT22;998;49.906;10.908;2023-08-06T01:47:38;17.10;99.90
1994;DHT22;998;49.906;10.908;2023-08-06T01:50:06;17.10;99.90
1994;DHT22;998;49.906;10.908;2023-08-06T01:52:33;17.20;99.90
1994;DHT22;998;49.906;10.908;2023-08-06T01:55:02;17.20;99.90
1994;DHT22;998;49.906;10.908;2023-08-06T01:57:29;17.20;99.90
1994;DHT22;998;49.906;10.908;2023-08-06T01:59:57;17.10;99.90
1994;DHT22;998;49.906;10.908;2023-08-06T02:02:24;17.10;99.90
1994;DHT22;998;49.906;10.908;2023-08-06T02:04:51;17.10;99.90
1994;DHT22;998;49.906;10.908;2023-08-06T02:07:18;17.10;99.90
1994;DHT22;998;49.906;10.908;2023-08-06T02:09:46;17.00;99.90
1994;DHT22;998;49.906;10.908;2023-08-06T02:12:15;17.00;99.90
1994;DHT22;998;49.906;10.908;2023-08-06T02:14:42;17.00;99.90
1994;DHT22;998;49.906;10.908;2023-08-06T02:17:09;17.10;99.90
1994;DHT22;998;49.906;10.908;2023-08-06T02:19:37;17.10;99.90
1994;DHT22;998;49.906;10.908;2023-08-06T02:22:05;16.90;99.90
1994;DHT22;998;49.906;10.908;2023-08-06T02:24:32;16.90;99.90
1994;DHT22;998;49.906;10.908;2023-08-06T02:26:59;16.90;99.90
1994;DHT22;998;49.906;10.908;2023-08-06T02:29:28;17.00;99.90
1994;DHT22;998;49.906;10.908;2023-08-06T02:31:55;16.90;99.90
1994;DHT22;998;49.906;10.908;2023-08-06T02:34:23;16.90;99.90
1994;DHT22;998;49.906;10.908;2023-08-06T02:36:50;16.90;99.90
1994;DHT22;998;49.906;10.908;2023-08-06T02:39:17;16.90;99.90
1994;DHT22;998;49.906;10.908;2023-08-06T02:41:45;16.90;99.90
1994;DHT22;998;49.906;10.908;2023-08-06T02:44:13;17.00;99.90
1994;DHT22;998;49.906;10.908;2023-08-06T02:46:42;16.90;99.90
1994;DHT22;998;49.906;10.908;2023-08-06T02:49:11;16.90;99.90
1994;DHT22;998;49.906;10.908;2023-08-06T02:51:38;16.90;99.90
1994;DHT22;998;49.906;10.908;2023-08-06T02:54:06;16.80;99.90
1994;DHT22;998;49.906;10.908;2023-08-06T02:56:33;16.80;99.90
1994;DHT22;998;49.906;10.908;2023-08-06T02:59:00;16.70;99.90
1994;DHT22;998;49.906;10.908;2023-08-06T03:01:28;16.80;99.90
1994;DHT22;998;49.906;10.908;2023-08-06T03:03:57;16.80;99.90
1994;DHT22;998;49.906;10.908;2023-08-06T03:06:24;16.80;99.90
1994;DHT22;998;49.906;10.908;2023-08-06T03:08:51;16.80;99.90
1994;DHT22;998;49.906;10.908;2023-08-06T03:11:19;16.80;99.90
1994;DHT22;998;49.906;10.908;2023-08-06T03:13:47;16.80;99.90
1994;DHT22;998;49.906;10.908;2023-08-06T03:16:15;16.80;99.90
1994;DHT22;998;49.906;10.908;2023-08-06T03:18:42;16.80;99.90
1994;DHT22;998;49.906;10.908;2023-08-06T03:21:11;16.80;99.90
1994;DHT22;998;49.906;10.908;2023-08-06T03:23:38;16.70;99.90
1994;DHT22;998;49.906;10.908;2023-08-06T03:26:05;16.80;99.90
1994;DHT22;998;49.906;10.908;2023-08-06T03:28:33;16.80;99.90
1994;DHT22;998;49.906;10.908;2023-08-06T03:31:01;16.70;99.90
1994;DHT22;998;49.906;10.908;2023-08-06T03:33:28;16.70;99.90
1994;DHT22;998;49.906;10.908;2023-08-06T03:35:56;16.80;99.90
1994;DHT22;998;49.906;10.908;2023-08-06T03:38:25;16.70;99.90
1994;DHT22;998;49.906;10.908;2023-08-06T03:40:52;16.70;99.90
1994;DHT22;998;49.906;10.908;2023-08-06T03:43:19;16.70;99.90
1994;DHT22;998;49.906;10.908;2023-08-06T03:45:47;16.70;99.90
1994;DHT22;998;49.906;10.908;2023-08-06T03:48:14;16.70;99.90
1994;DHT22;998;49.906;10.908;2023-08-06T03:50:41;16.70;99.90
1994;DHT22;998;49.906;10.908;2023-08-06T03:53:09;16.60;99.90
1994;DHT22;998;49.906;10.908;2023-08-06T03:55:38;16.60;99.90
1994;DHT22;998;49.906;10.908;2023-08-06T03:58:05;16.60;99.90
1994;DHT22;998;49.906;10.908;2023-08-06T04:00:32;16.50;99.90
1994;DHT22;998;49.906;10.908;2023-08-06T04:03:00;16.40;99.90
1994;DHT22;998;49.906;10.908;2023-08-06T04:05:27;16.40;99.90
1994;DHT22;998;49.906;10.908;2023-08-06T04:07:54;16.40;99.90
1994;DHT22;998;49.906;10.908;2023-08-06T04:10:22;16.30;99.90
1994;DHT22;998;49.906;10.908;2023-08-06T04:12:51;16.40;99.90
1994;DHT22;998;49.906;10.908;2023-08-06T04:15:18;16.40;99.90
1994;DHT22;998;49.906;10.908;2023-08-06T04:17:45;16.40;99.90
1994;DHT22;998;49.906;10.908;2023-08-06T04:20:13;16.40;99.90
1994;DHT22;998;49.906;10.908;2023-08-06T04:22:40;16.40;99.90
1994;DHT22;998;49.906;10.908;2023-08-06T04:25:08;16.30;99.90
1994;DHT22;998;49.906;10.908;2023-08-06T04:27:35;16.30;99.90
1994;DHT22;998;49.906;10.908;2023-08-06T04:30:09;16.20;99.90
1994;DHT22;998;49.906;10.908;2023-08-06T04:32:39;16.20;99.90
1994;DHT22;998;49.906;10.908;2023-08-06T04:35:07;16.20;99.90
1994;DHT22;998;49.906;10.908;2023-08-06T04:37:34;16.20;99.90
1994;DHT22;998;49.906;10.908;2023-08-06T04:40:02;16.20;99.90
1994;DHT22;998;49.906;10.908;2023-08-06T04:42:29;16.20;99.90
1994;DHT22;998;49.906;10.908;2023-08-06T04:44:56;16.10;99.90
1994;DHT22;998;49.906;10.908;2023-08-06T04:47:25;16.10;99.90
1994;DHT22;998;49.906;10.908;2023-08-06T04:49:53;16.10;99.90
1994;DHT22;998;49.906;10.908;2023-08-06T04:52:20;16.00;99.90
1994;DHT22;998;49.906;10.908;2023-08-06T04:54:48;16.10;99.90
1994;DHT22;998;49.906;10.908;2023-08-06T04:57:15;16.10;99.90
1994;DHT22;998;49.906;10.908;2023-08-06T04:59:42;16.00;99.90
1994;DHT22;998;49.906;10.908;2023-08-06T05:02:10;16.00;99.90
1994;DHT22;998;49.906;10.908;2023-08-06T05:04:38;16.10;99.90
1994;DHT22;998;49.906;10.908;2023-08-06T05:07:06;16.00;99.90
1994;DHT22;998;49.906;10.908;2023-08-06T05:09:33;16.00;99.90
1994;DHT22;998;49.906;10.908;2023-08-06T05:12:01;16.00;99.90
1994;DHT22;998;49.906;10.908;2023-08-06T05:14:29;16.10;99.90
1994;DHT22;998;49.906;10.908;2023-08-06T05:16:56;16.10;99.90
1994;DHT22;998;49.906;10.908;2023-08-06T05:19:23;16.10;99.90
1994;DHT22;998;49.906;10.908;2023-08-06T05:21:52;16.10;99.90
1994;DHT22;998;49.906;10.908;2023-08-06T05:24:19;16.10;99.90
1994;DHT22;998;49.906;10.908;2023-08-06T05:26:47;16.10;99.90
1994;DHT22;998;49.906;10.908;2023-08-06T05:29:16;16.10;99.90
1994;DHT22;998;49.906;10.908;2023-08-06T05:31:43;16.10;99.90
1994;DHT22;998;49.906;10.908;2023-08-06T05:34:11;16.10;99.90
1994;DHT22;998;49.906;10.908;2023-08-06T05:36:38;16.00;99.90
1994;DHT22;998;49.906;10.908;2023-08-06T05:39:07;16.10;99.90
1994;DHT22;998;49.906;10.908;2023-08-06T05:41:34;16.10;99.90
1994;DHT22;998;49.906;10.908;2023-08-06T05:44:02;16.00;99.90
1994;DHT22;998;49.906;10.908;2023-08-06T05:46:29;16.10;99.90
1994;DHT22;998;49.906;10.908;2023-08-06T05:48:56;16.10;99.90
1994;DHT22;998;49.906;10.908;2023-08-06T05:51:25;16.00;99.90
1994;DHT22;998;49.906;10.908;2023-08-06T05:53:52;16.10;99.90
1994;DHT22;998;49.906;10.908;2023-08-06T05:56:21;16.10;99.90
1994;DHT22;998;49.906;10.908;2023-08-06T05:58:48;16.10;99.90
1994;DHT22;998;49.906;10.908;2023-08-06T06:01:18;16.10;99.90
1994;DHT22;998;49.906;10.908;2023-08-06T06:03:46;16.10;99.90
1994;DHT22;998;49.906;10.908;2023-08-06T06:06:13;16.10;99.90
1994;DHT22;998;49.906;10.908;2023-08-06T06:08:41;16.20;99.90
1994;DHT22;998;49.906;10.908;2023-08-06T06:11:09;16.20;99.90
1994;DHT22;998;49.906;10.908;2023-08-06T06:13:38;16.30;99.90
1994;DHT22;998;49.906;10.908;2023-08-06T06:16:05;16.40;99.90
1994;DHT22;998;49.906;10.908;2023-08-06T06:18:32;16.40;99.90
1994;DHT22;998;49.906;10.908;2023-08-06T06:21:00;16.40;99.90
1994;DHT22;998;49.906;10.908;2023-08-06T06:23:27;16.40;99.90
1994;DHT22;998;49.906;10.908;2023-08-06T06:25:55;16.40;99.90
1994;DHT22;998;49.906;10.908;2023-08-06T06:28:22;16.30;99.90
1994;DHT22;998;49.906;10.908;2023-08-06T06:30:51;16.30;99.90
1994;DHT22;998;49.906;10.908;2023-08-06T06:33:19;16.30;99.90
1994;DHT22;998;49.906;10.908;2023-08-06T06:35:46;16.30;99.90
1994;DHT22;998;49.906;10.908;2023-08-06T06:38:13;16.40;99.90
1994;DHT22;998;49.906;10.908;2023-08-06T06:40:41;16.30;99.90
1994;DHT22;998;49.906;10.908;2023-08-06T06:43:08;16.30;99.90
1994;DHT22;998;49.906;10.908;2023-08-06T06:45:36;16.30;99.90
1994;DHT22;998;49.906;10.908;2023-08-06T06:48:05;16.40;99.90
1994;DHT22;998;49.906;10.908;2023-08-06T06:50:32;16.40;99.90
1994;DHT22;998;49.906;10.908;2023-08-06T06:52:59;16.40;99.90
1994;DHT22;998;49.906;10.908;2023-08-06T06:55:27;16.50;99.90
1994;DHT22;998;49.906;10.908;2023-08-06T06:57:54;16.50;99.90
1994;DHT22;998;49.906;10.908;2023-08-06T07:00:22;16.50;99.90
1994;DHT22;998;49.906;10.908;2023-08-06T07:02:49;16.60;99.90
1994;DHT22;998;49.906;10.908;2023-08-06T07:05:18;16.60;99.90
1994;DHT22;998;49.906;10.908;2023-08-06T07:07:45;16.70;99.90
1994;DHT22;998;49.906;10.908;2023-08-06T07:10:12;16.70;99.90
1994;DHT22;998;49.906;10.908;2023-08-06T07:12:40;16.70;99.90
1994;DHT22;998;49.906;10.908;2023-08-06T07:15:08;16.70;99.90
1994;DHT22;998;49.906;10.908;2023-08-06T07:17:35;16.70;99.90
1994;DHT22;998;49.906;10.908;2023-08-06T07:20:04;16.70;99.90
1994;DHT22;998;49.906;10.908;2023-08-06T07:22:33;16.70;99.90
1994;DHT22;998;49.906;10.908;2023-08-06T07:25:01;16.70;99.90
1994;DHT22;998;49.906;10.908;2023-08-06T07:27:28;16.80;99.90
1994;DHT22;998;49.906;10.908;2023-08-06T07:29:56;16.80;99.90
1994;DHT22;998;49.906;10.908;2023-08-06T07:32:24;16.90;99.90
1994;DHT22;998;49.906;10.908;2023-08-06T07:34:51;16.90;99.90
1994;DHT22;998;49.906;10.908;2023-08-06T07:37:22;16.90;99.90
1994;DHT22;998;49.906;10.908;2023-08-06T07:39:51;16.90;99.90
1994;DHT22;998;49.906;10.908;2023-08-06T07:42:19;16.90;99.90
1994;DHT22;998;49.906;10.908;2023-08-06T07:44:51;16.90;99.90
1994;DHT22;998;49.906;10.908;2023-08-06T07:47:18;17.00;99.90
1994;DHT22;998;49.906;10.908;2023-08-06T07:49:46;17.00;99.90
1994;DHT22;998;49.906;10.908;2023-08-06T07:52:14;17.00;99.90
1994;DHT22;998;49.906;10.908;2023-08-06T07:54:41;17.00;99.90
1994;DHT22;998;49.906;10.908;2023-08-06T07:57:10;17.40;99.90
1994;DHT22;998;49.906;10.908;2023-08-06T07:59:37;17.10;99.90
1994;DHT22;998;49.906;10.908;2023-08-06T08:02:05;17.10;99.90
1994;DHT22;998;49.906;10.908;2023-08-06T08:04:33;17.50;99.90
1994;DHT22;998;49.906;10.908;2023-08-06T08:07:00;17.20;99.90
1994;DHT22;998;49.906;10.908;2023-08-06T08:09:28;17.20;99.90
1994;DHT22;998;49.906;10.908;2023-08-06T08:11:55;17.10;99.90
1994;DHT22;998;49.906;10.908;2023-08-06T08:14:24;17.10;99.90
1994;DHT22;998;49.906;10.908;2023-08-06T08:16:51;17.10;99.90
1994;DHT22;998;49.906;10.908;2023-08-06T08:19:19;17.00;99.90
1994;DHT22;998;49.906;10.908;2023-08-06T08:21:47;17.00;99.90
1994;DHT22;998;49.906;10.908;2023-08-06T08:24:14;16.90;99.90
1994;DHT22;998;49.906;10.908;2023-08-06T08:26:41;16.80;99.90
1994;DHT22;998;49.906;10.908;2023-08-06T08:29:09;16.70;99.90
1994;DHT22;998;49.906;10.908;2023-08-06T08:31:38;16.60;99.90
1994;DHT22;998;49.906;10.908;2023-08-06T08:34:05;16.50;99.90
1994;DHT22;998;49.906;10.908;2023-08-06T08:36:32;16.50;99.90
1994;DHT22;998;49.906;10.908;2023-08-06T08:39:00;16.50;99.90
1994;DHT22;998;49.906;10.908;2023-08-06T08:41:29;16.50;99.90
1994;DHT22;998;49.906;10.908;2023-08-06T08:43:58;16.70;99.90
1994;DHT22;998;49.906;10.908;2023-08-06T08:46:26;16.70;99.90
1994;DHT22;998;49.906;10.908;2023-08-06T08:48:56;16.70;99.90
1994;DHT22;998;49.906;10.908;2023-08-06T08:51:24;16.80;99.90
1994;DHT22;998;49.906;10.908;2023-08-06T08:53:53;16.80;99.90
1994;DHT22;998;49.906;10.908;2023-08-06T08:56:23;16.80;99.90
1994;DHT22;998;49.906;10.908;2023-08-06T08:58:50;16.70;99.90
1994;DHT22;998;49.906;10.908;2023-08-06T09:01:19;16.70;99.90
1994;DHT22;998;49.906;10.908;2023-08-06T09:03:47;16.70;99.90
1994;DHT22;998;49.906;10.908;2023-08-06T09:06:17;16.70;99.90
1994;DHT22;998;49.906;10.908;2023-08-06T09:08:51;16.70;99.90
1994;DHT22;998;49.906;10.908;2023-08-06T09:11:23;16.70;99.90
1994;DHT22;998;49.906;10.908;2023-08-06T09:13:51;16.80;99.90
1994;DHT22;998;49.906;10.908;2023-08-06T09:16:20;16.80;99.90
1994;DHT22;998;49.906;10.908;2023-08-06T09:18:47;16.70;99.90
1994;DHT22;998;49.906;10.908;2023-08-06T09:21:16;16.80;99.90
1994;DHT22;998;49.906;10.908;2023-08-06T09:23:43;16.70;99.90
1994;DHT22;998;49.906;10.908;2023-08-06T09:26:12;16.70;99.90
1994;DHT22;998;49.906;10.908;2023-08-06T09:28:40;16.80;99.90
1994;DHT22;998;49.906;10.908;2023-08-06T09:31:09;16.80;99.90
1994;DHT22;998;49.906;10.908;2023-08-06T09:33:37;16.90;99.90
1994;DHT22;998;49.906;10.908;2023-08-06T09:36:09;16.90;99.90
1994;DHT22;998;49.906;10.908;2023-08-06T09:38:41;16.80;99.90
1994;DHT22;998;49.906;10.908;2023-08-06T09:41:09;16.70;99.90
1994;DHT22;998;49.906;10.908;2023-08-06T09:43:42;16.80;99.90
1994;DHT22;998;49.906;10.908;2023-08-06T09:46:13;16.90;99.90
1994;DHT22;998;49.906;10.908;2023-08-06T09:48:45;17.00;99.90
1994;DHT22;998;49.906;10.908;2023-08-06T09:51:13;17.00;99.90
1994;DHT22;998;49.906;10.908;2023-08-06T09:53:42;16.90;99.90
1994;DHT22;998;49.906;10.908;2023-08-06T09:56:11;17.00;99.90
1994;DHT22;998;49.906;10.908;2023-08-06T09:58:40;17.00;99.90
1994;DHT22;998;49.906;10.908;2023-08-06T10:01:07;17.00;99.90
1994;DHT22;998;49.906;10.908;2023-08-06T10:03:35;17.10;99.90
1994;DHT22;998;49.906;10.908;2023-08-06T10:06:04;17.10;99.90
1994;DHT22;998;49.906;10.908;2023-08-06T10:08:34;17.20;99.90
1994;DHT22;998;49.906;10.908;2023-08-06T10:11:04;17.10;99.90
1994;DHT22;998;49.906;10.908;2023-08-06T10:13:33;17.10;99.90
1994;DHT22;998;49.906;10.908;2023-08-06T10:16:02;17.10;99.90
1994;DHT22;998;49.906;10.908;2023-08-06T10:18:31;17.00;99.90
1994;DHT22;998;49.906;10.908;2023-08-06T10:20:59;17.10;99.90
1994;DHT22;998;49.906;10.908;2023-08-06T10:23:33;17.10;99.90
1994;DHT22;998;49.906;10.908;2023-08-06T10:26:05;17.20;99.90
1994;DHT22;998;49.906;10.908;2023-08-06T10:28:36;17.40;99.90
1994;DHT22;998;49.906;10.908;2023-08-06T10:31:04;17.50;99.90
1994;DHT22;998;49.906;10.908;2023-08-06T10:33:42;17.60;99.90
1994;DHT22;998;49.906;10.908;2023-08-06T10:36:10;17.70;99.90
1994;DHT22;998;49.906;10.908;2023-08-06T10:38:45;17.80;99.90
1994;DHT22;998;49.906;10.908;2023-08-06T10:41:22;17.90;99.90
1994;DHT22;998;49.906;10.908;2023-08-06T10:43:50;17.90;99.90
1994;DHT22;998;49.906;10.908;2023-08-06T10:46:27;17.90;99.90
1994;DHT22;998;49.906;10.908;2023-08-06T10:48:54;17.80;99.90
1994;DHT22;998;49.906;10.908;2023-08-06T10:51:22;17.60;99.90
1994;DHT22;998;49.906;10.908;2023-08-06T10:53:50;17.70;99.90
1994;DHT22;998;49.906;10.908;2023-08-06T10:56:19;17.80;99.90
1994;DHT22;998;49.906;10.908;2023-08-06T10:58:48;17.80;99.90
1994;DHT22;998;49.906;10.908;2023-08-06T11:01:16;17.90;99.90
1994;DHT22;998;49.906;10.908;2023-08-06T11:03:45;18.00;99.90
1994;DHT22;998;49.906;10.908;2023-08-06T11:06:17;18.10;99.90
1994;DHT22;998;49.906;10.908;2023-08-06T11:08:48;18.00;99.90
1994;DHT22;998;49.906;10.908;2023-08-06T11:11:18;17.90;99.90
1994;DHT22;998;49.906;10.908;2023-08-06T11:13:47;17.90;99.90
1994;DHT22;998;49.906;10.908;2023-08-06T11:16:15;18.00;99.90
1994;DHT22;998;49.906;10.908;2023-08-06T11:18:44;18.00;99.90
1994;DHT22;998;49.906;10.908;2023-08-06T11:21:12;18.00;99.90
1994;DHT22;998;49.906;10.908;2023-08-06T11:23:40;18.10;99.90
1994;DHT22;998;49.906;10.908;2023-08-06T11:26:08;18.20;99.90
1994;DHT22;998;49.906;10.908;2023-08-06T11:28:37;18.30;99.90
1994;DHT22;998;49.906;10.908;2023-08-06T11:31:04;18.40;99.90
1994;DHT22;998;49.906;10.908;2023-08-06T11:33:31;18.60;99.90
1994;DHT22;998;49.906;10.908;2023-08-06T11:35:59;18.60;99.90
1994;DHT22;998;49.906;10.908;2023-08-06T11:38:29;18.40;99.90
1994;DHT22;998;49.906;10.908;2023-08-06T11:40:56;18.40;99.90
1994;DHT22;998;49.906;10.908;2023-08-06T11:43:24;18.30;99.90
1994;DHT22;998;49.906;10.908;2023-08-06T11:45:56;18.30;99.90
1994;DHT22;998;49.906;10.908;2023-08-06T11:48:23;18.50;99.90
1994;DHT22;998;49.906;10.908;2023-08-06T11:50:54;18.60;99.90
1994;DHT22;998;49.906;10.908;2023-08-06T11:53:27;18.60;99.90
1994;DHT22;998;49.906;10.908;2023-08-06T11:55:55;18.80;99.90
1994;DHT22;998;49.906;10.908;2023-08-06T11:58:23;18.80;99.90
1994;DHT22;998;49.906;10.908;2023-08-06T12:00:52;18.80;99.90
1994;DHT22;998;49.906;10.908;2023-08-06T12:03:19;18.90;99.90
1994;DHT22;998;49.906;10.908;2023-08-06T12:05:47;18.80;99.90
1994;DHT22;998;49.906;10.908;2023-08-06T12:08:15;19.00;99.90
1994;DHT22;998;49.906;10.908;2023-08-06T12:10:43;19.20;99.90
1994;DHT22;998;49.906;10.908;2023-08-06T12:13:12;19.30;99.90
1994;DHT22;998;49.906;10.908;2023-08-06T12:15:39;19.20;99.90
1994;DHT22;998;49.906;10.908;2023-08-06T12:18:08;19.20;99.90
1994;DHT22;998;49.906;10.908;2023-08-06T12:20:37;19.00;99.90
1994;DHT22;998;49.906;10.908;2023-08-06T12:23:04;18.90;99.90
1994;DHT22;998;49.906;10.908;2023-08-06T12:25:32;18.90;99.90
1994;DHT22;998;49.906;10.908;2023-08-06T12:27:59;19.30;99.90
1994;DHT22;998;49.906;10.908;2023-08-06T12:30:27;19.80;99.90
1994;DHT22;998;49.906;10.908;2023-08-06T12:32:54;19.40;99.90
1994;DHT22;998;49.906;10.908;2023-08-06T12:35:23;19.60;99.90
1994;DHT22;998;49.906;10.908;2023-08-06T12:37:51;19.60;99.90
1994;DHT22;998;49.906;10.908;2023-08-06T12:40:20;19.90;99.90
1994;DHT22;998;49.906;10.908;2023-08-06T12:42:49;20.70;99.90
1994;DHT22;998;49.906;10.908;2023-08-06T12:45:17;21.40;99.90
1994;DHT22;998;49.906;10.908;2023-08-06T12:47:46;21.90;99.90
1994;DHT22;998;49.906;10.908;2023-08-06T12:50:15;21.70;99.90
1994;DHT22;998;49.906;10.908;2023-08-06T12:52:44;20.80;99.90
1994;DHT22;998;49.906;10.908;2023-08-06T12:55:11;20.40;99.90
1994;DHT22;998;49.906;10.908;2023-08-06T12:57:39;20.30;99.90
1994;DHT22;998;49.906;10.908;2023-08-06T13:00:07;20.80;99.90
1994;DHT22;998;49.906;10.908;2023-08-06T13:02:35;21.40;99.90
1994;DHT22;998;49.906;10.908;2023-08-06T13:05:02;22.10;99.90
1994;DHT22;998;49.906;10.908;2023-08-06T13:07:31;22.10;99.90
1994;DHT22;998;49.906;10.908;2023-08-06T13:10:00;21.80;99.90
1994;DHT22;998;49.906;10.908;2023-08-06T13:12:28;22.10;99.90
1994;DHT22;998;49.906;10.908;2023-08-06T13:14:55;22.40;99.90
1994;DHT22;998;49.906;10.908;2023-08-06T13:17:25;23.10;99.90
1994;DHT22;998;49.906;10.908;2023-08-06T13:19:52;23.40;99.90
1994;DHT22;998;49.906;10.908;2023-08-06T13:22:20;23.50;99.90
1994;DHT22;998;49.906;10.908;2023-08-06T13:24:47;22.80;99.90
1994;DHT22;998;49.906;10.908;2023-08-06T13:27:16;22.20;99.90
1994;DHT22;998;49.906;10.908;2023-08-06T13:29:43;21.60;99.90
1994;DHT22;998;49.906;10.908;2023-08-06T13:32:11;20.80;99.90
1994;DHT22;998;49.906;10.908;2023-08-06T13:34:38;20.80;99.90
1994;DHT22;998;49.906;10.908;2023-08-06T13:37:06;20.60;99.90
1994;DHT22;998;49.906;10.908;2023-08-06T13:39:33;20.40;99.90
1994;DHT22;998;49.906;10.908;2023-08-06T13:42:00;20.20;99.90
1994;DHT22;998;49.906;10.908;2023-08-06T13:44:29;19.80;99.90
1994;DHT22;998;49.906;10.908;2023-08-06T13:47:01;19.40;99.90
1994;DHT22;998;49.906;10.908;2023-08-06T13:49:29;19.00;99.90
1994;DHT22;998;49.906;10.908;2023-08-06T13:51:56;18.80;99.90
1994;DHT22;998;49.906;10.908;2023-08-06T13:54:24;18.80;99.90
1994;DHT22;998;49.906;10.908;2023-08-06T13:56:51;18.80;99.90
1994;DHT22;998;49.906;10.908;2023-08-06T13:59:19;18.90;99.90
1994;DHT22;998;49.906;10.908;2023-08-06T14:01:48;19.00;99.90
1994;DHT22;998;49.906;10.908;2023-08-06T14:04:15;19.10;99.90
1994;DHT22;998;49.906;10.908;2023-08-06T14:06:42;19.10;99.90
1994;DHT22;998;49.906;10.908;2023-08-06T14:09:10;19.10;99.90
1994;DHT22;998;49.906;10.908;2023-08-06T14:11:39;19.10;99.90
1994;DHT22;998;49.906;10.908;2023-08-06T14:14:07;18.90;99.90
1994;DHT22;998;49.906;10.908;2023-08-06T14:16:34;19.00;99.90
1994;DHT22;998;49.906;10.908;2023-08-06T14:19:04;19.20;99.90
1994;DHT22;998;49.906;10.908;2023-08-06T14:21:31;19.10;99.90
1994;DHT22;998;49.906;10.908;2023-08-06T14:23:59;19.10;99.90
1994;DHT22;998;49.906;10.908;2023-08-06T14:26:26;19.00;99.90
1994;DHT22;998;49.906;10.908;2023-08-06T14:28:53;18.90;99.90
1994;DHT22;998;49.906;10.908;2023-08-06T14:31:21;18.70;99.90
1994;DHT22;998;49.906;10.908;2023-08-06T14:33:48;18.50;99.90
1994;DHT22;998;49.906;10.908;2023-08-06T14:36:17;18.30;99.90
1994;DHT22;998;49.906;10.908;2023-08-06T14:38:44;18.10;99.90
1994;DHT22;998;49.906;10.908;2023-08-06T14:41:12;18.00;99.90
1994;DHT22;998;49.906;10.908;2023-08-06T14:43:39;18.00;99.90
1994;DHT22;998;49.906;10.908;2023-08-06T14:46:07;17.90;99.90
1994;DHT22;998;49.906;10.908;2023-08-06T14:48:34;17.90;99.90
1994;DHT22;998;49.906;10.908;2023-08-06T14:51:01;17.80;99.90
1994;DHT22;998;49.906;10.908;2023-08-06T14:53:30;17.70;99.90
1994;DHT22;998;49.906;10.908;2023-08-06T14:55:58;17.70;99.90
1994;DHT22;998;49.906;10.908;2023-08-06T14:58:25;17.50;99.90
1994;DHT22;998;49.906;10.908;2023-08-06T15:00:52;17.40;99.90
1994;DHT22;998;49.906;10.908;2023-08-06T15:03:20;17.40;99.90
1994;DHT22;998;49.906;10.908;2023-08-06T15:05:47;17.30;99.90
1994;DHT22;998;49.906;10.908;2023-08-06T15:08:17;17.30;99.90
1994;DHT22;998;49.906;10.908;2023-08-06T15:10:51;17.20;99.90
1994;DHT22;998;49.906;10.908;2023-08-06T15:13:19;17.20;99.90
1994;DHT22;998;49.906;10.908;2023-08-06T15:15:47;17.20;99.90
1994;DHT22;998;49.906;10.908;2023-08-06T15:18:14;17.20;99.90
1994;DHT22;998;49.906;10.908;2023-08-06T15:20:42;17.20;99.90
1994;DHT22;998;49.906;10.908;2023-08-06T15:23:09;17.30;99.90
1994;DHT22;998;49.906;10.908;2023-08-06T15:25:36;17.30;99.90
1994;DHT22;998;49.906;10.908;2023-08-06T15:28:05;17.10;99.90
1994;DHT22;998;49.906;10.908;2023-08-06T15:30:33;17.10;99.90
1994;DHT22;998;49.906;10.908;2023-08-06T15:33:00;17.00;99.90
1994;DHT22;998;49.906;10.908;2023-08-06T15:35:27;16.90;99.90
1994;DHT22;998;49.906;10.908;2023-08-06T15:37:54;16.80;99.90
1994;DHT22;998;49.906;10.908;2023-08-06T15:40:22;16.80;99.90
1994;DHT22;998;49.906;10.908;2023-08-06T15:42:49;16.70;99.90
1994;DHT22;998;49.906;10.908;2023-08-06T15:45:18;16.60;99.90
1994;DHT22;998;49.906;10.908;2023-08-06T15:47:46;16.50;99.90
1994;DHT22;998;49.906;10.908;2023-08-06T15:50:13;16.50;99.90
1994;DHT22;998;49.906;10.908;2023-08-06T15:52:40;16.50;99.90
1994;DHT22;998;49.906;10.908;2023-08-06T15:55:08;16.50;99.90
1994;DHT22;998;49.906;10.908;2023-08-06T15:57:36;16.60;99.90
1994;DHT22;998;49.906;10.908;2023-08-06T16:00:05;16.50;99.90
1994;DHT22;998;49.906;10.908;2023-08-06T16:02:34;16.60;99.90
1994;DHT22;998;49.906;10.908;2023-08-06T16:05:01;16.50;99.90
1994;DHT22;998;49.906;10.908;2023-08-06T16:07:29;16.50;99.90